Seaton, United Kingdom
Current Conditions -  °F | °C
As of 7:50 PM on Thursday 23 Oct 2014 (Local Time) from EGTE Reporting Station
Broken Clouds Broken Clouds  
Wind Chill: 57°   Ceiling: 2000
Heat Index: 57°   Visibility: 6mi
Dew Point: 55°   Wind: 5mph
Humidity: 94%   Direction: 240°WSW
Pressure: 30.03"   Gusts: NA
Location:  50.71°N, 3.07°W
Report Text: EGTE 231850Z 24004KT 9999 BKN020 14/13 Q1017
Loading
Personal Weather Stations






























Interactive Weather Map
Tropical Storm Tracking
New forecast layout! Learn more

10-Day Weather Forecast

Advertisements
Track Severe Weather on mobile